Terminal Aerodrome Forecast
Issued by NWS

Home | Current Version | Previous Version | Text Only | Print | Product List | Glossary On
Versions: 1 2 3 4 5 6 7 8 9 10 11 12 13 14 15 16 17 18 19 20 21 22 23 24 25 26 27 28 29 30 31 32 33 34 35 36 37 38 39 40 41 42 43 44 45 46 47 48 49 50
613
FTUS42 KMFL 290858 AAB
TAFOPF
TAF AMD
KOPF 290858Z 2909/3006 VRB03KT P6SM VCTS SCT025CB SCT050 BKN250
     FM291200 13010KT P6SM VCTS SCT030CB BKN050 BKN250
     FM300000 14010KT P6SM SHRA VCTS BKN025CB BKN050 OVC100=

USA.gov is the U.S. government's official web portal to all federal, state and local government web resources and services.